createdAt,value
2018-11-25T00:00:54.089Z,41.30
2018-11-25T00:01:54.084Z,42.90
2018-11-25T00:02:54.081Z,40.00
2018-11-25T00:03:54.087Z,42.30
2018-11-25T00:04:54.101Z,42.40
2018-11-25T00:05:54.091Z,41.60
2018-11-25T00:06:54.128Z,46.10
2018-11-25T00:07:54.075Z,40.00
2018-11-25T00:08:54.091Z,44.20
2018-11-25T00:09:54.072Z,42.20
2018-11-25T00:10:54.073Z,43.50
2018-11-25T00:11:54.073Z,43.10
2018-11-25T00:12:54.091Z,43.30
2018-11-25T00:13:54.060Z,43.70
2018-11-25T00:14:54.069Z,46.60
2018-11-25T00:15:54.080Z,50.40
2018-11-25T00:16:54.072Z,41.10
2018-11-25T00:17:54.057Z,46.30
2018-11-25T00:18:54.057Z,45.20
2018-11-25T00:19:54.059Z,48.10
2018-11-25T00:20:54.111Z,42.30
2018-11-25T00:21:54.079Z,43.30
2018-11-25T00:22:54.059Z,41.90
2018-11-25T00:23:54.060Z,46.20
2018-11-25T00:24:54.036Z,43.00
2018-11-25T00:25:54.056Z,43.70
2018-11-25T00:26:54.042Z,41.30
2018-11-25T00:27:54.052Z,43.50
2018-11-25T00:28:54.051Z,47.80
2018-11-25T00:29:54.037Z,46.30
2018-11-25T00:30:54.031Z,50.10
2018-11-25T00:31:54.034Z,47.00
2018-11-25T00:32:54.026Z,43.30
2018-11-25T00:33:54.039Z,44.60
2018-11-25T00:34:54.049Z,42.50
2018-11-25T00:35:54.038Z,43.70
2018-11-25T00:36:54.051Z,48.00
2018-11-25T00:37:54.015Z,44.50
2018-11-25T00:38:54.009Z,43.40
2018-11-25T00:39:54.016Z,44.60
2018-11-25T00:40:54.010Z,42.40
2018-11-25T00:41:54.038Z,40.30
2018-11-25T00:42:54.010Z,42.80
2018-11-25T00:43:53.998Z,44.60
2018-11-25T00:44:54.008Z,45.70
2018-11-25T00:45:54.001Z,44.80
2018-11-25T00:46:54.008Z,43.10
2018-11-25T00:47:54.007Z,41.70
2018-11-25T00:48:53.991Z,42.20
2018-11-25T00:49:53.996Z,43.80
2018-11-25T00:50:54.001Z,41.00
2018-11-25T00:51:53.988Z,42.80
2018-11-25T00:52:54.019Z,38.50
2018-11-25T00:53:53.982Z,40.10
2018-11-25T00:54:53.981Z,45.40
2018-11-25T00:55:53.979Z,41.40
2018-11-25T00:56:53.979Z,43.30
2018-11-25T00:57:53.984Z,44.90
2018-11-25T00:58:53.986Z,43.60
2018-11-25T00:59:53.984Z,42.50
2018-11-25T01:00:53.994Z,42.80
2018-11-25T01:01:53.972Z,43.20
2018-11-25T01:02:53.982Z,43.60
2018-11-25T01:03:53.996Z,43.80
2018-11-25T01:04:53.965Z,47.00
2018-11-25T01:05:53.953Z,42.70
2018-11-25T01:06:53.953Z,47.90
2018-11-25T01:07:53.951Z,43.80
2018-11-25T01:08:53.950Z,44.30
2018-11-25T01:09:53.956Z,45.50
2018-11-25T01:10:53.961Z,46.90
2018-11-25T01:11:53.962Z,44.40
2018-11-25T01:12:53.935Z,48.00
2018-11-25T01:13:53.947Z,44.50
2018-11-25T01:14:53.935Z,46.60
2018-11-25T01:15:53.943Z,46.00
2018-11-25T01:16:53.937Z,41.90
2018-11-25T01:17:53.930Z,42.70
2018-11-25T01:18:53.932Z,43.40
2018-11-25T01:19:53.931Z,44.10
2018-11-25T01:20:53.926Z,48.10
2018-11-25T01:21:54.000Z,46.30
2018-11-25T01:22:53.936Z,39.70
2018-11-25T01:23:53.937Z,42.60
2018-11-25T01:24:53.918Z,41.50
2018-11-25T01:25:53.902Z,43.30
2018-11-25T01:26:53.916Z,42.40
2018-11-25T01:27:53.920Z,43.60
2018-11-25T01:28:53.919Z,44.10
2018-11-25T01:29:53.907Z,41.70
2018-11-25T01:30:53.907Z,45.70
2018-11-25T01:31:53.895Z,45.50
2018-11-25T01:32:53.897Z,44.30
2018-11-25T01:33:53.942Z,43.40
2018-11-25T01:35:00.870Z,43.90
2018-11-25T01:35:53.890Z,44.30
2018-11-25T01:36:53.897Z,47.70
2018-11-25T01:37:53.885Z,49.10
2018-11-25T01:38:53.905Z,43.60
2018-11-25T01:39:53.884Z,43.60
2018-11-25T01:40:53.886Z,45.20
2018-11-25T01:41:53.876Z,43.90
2018-11-25T01:42:53.879Z,44.60
2018-11-25T01:43:53.900Z,43.50
2018-11-25T01:44:53.882Z,48.90
2018-11-25T01:45:53.941Z,46.90
2018-11-25T01:46:53.878Z,46.00
2018-11-25T01:47:53.866Z,42.90
2018-11-25T01:48:53.867Z,42.30
2018-11-25T01:49:53.868Z,44.80
2018-11-25T01:50:53.856Z,44.40
2018-11-25T01:51:53.861Z,42.70
2018-11-25T01:52:53.867Z,44.10
2018-11-25T01:53:53.860Z,43.80
2018-11-25T01:54:53.862Z,46.80
2018-11-25T01:55:53.859Z,46.70
2018-11-25T01:56:53.848Z,45.70
2018-11-25T01:57:53.868Z,45.60
2018-11-25T01:58:53.844Z,48.70
2018-11-25T01:59:53.849Z,48.60
2018-11-25T02:00:53.837Z,46.10
2018-11-25T02:01:53.824Z,46.00
2018-11-25T02:02:53.830Z,45.50
2018-11-25T02:03:53.835Z,51.00
2018-11-25T02:04:53.826Z,46.40
2018-11-25T02:05:53.825Z,46.90
2018-11-25T02:06:53.837Z,47.70
2018-11-25T02:07:53.838Z,47.90
2018-11-25T02:08:53.826Z,46.60
2018-11-25T02:09:53.831Z,51.70
2018-11-25T02:10:53.810Z,49.50
2018-11-25T02:11:53.808Z,51.40
2018-11-25T02:12:53.811Z,52.30
2018-11-25T02:13:53.801Z,48.40
2018-11-25T02:14:53.806Z,49.50
2018-11-25T02:15:53.804Z,49.40
2018-11-25T02:16:53.813Z,51.30
2018-11-25T02:17:53.797Z,51.40
2018-11-25T02:18:53.808Z,51.50
2018-11-25T02:19:53.800Z,50.70
2018-11-25T02:20:53.805Z,55.80
2018-11-25T02:21:53.800Z,55.40
2018-11-25T02:22:53.793Z,55.90
2018-11-25T02:23:53.779Z,55.30
2018-11-25T02:24:53.790Z,57.40
2018-11-25T02:25:53.786Z,57.40
2018-11-25T02:26:53.774Z,53.50
2018-11-25T02:27:53.775Z,58.20
2018-11-25T02:28:53.803Z,59.20
2018-11-25T02:29:55.630Z,55.40
2018-11-25T02:30:53.776Z,60.20
2018-11-25T02:31:53.770Z,65.60
2018-11-25T02:32:53.767Z,56.40
2018-11-25T02:33:53.774Z,57.20
2018-11-25T02:34:53.756Z,63.90
2018-11-25T02:35:53.767Z,59.40
2018-11-25T02:36:53.753Z,62.80
2018-11-25T02:37:53.758Z,57.60
2018-11-25T02:38:53.769Z,58.50
2018-11-25T02:39:53.768Z,56.80
2018-11-25T02:40:53.750Z,60.60
2018-11-25T02:41:53.736Z,61.70
2018-11-25T02:42:53.748Z,58.40
2018-11-25T02:43:53.744Z,53.70
2018-11-25T02:44:53.732Z,57.40
2018-11-25T02:45:53.758Z,57.90
2018-11-25T02:46:53.731Z,57.40
2018-11-25T02:47:53.736Z,59.20
2018-11-25T02:48:53.743Z,60.00
2018-11-25T02:49:53.734Z,63.20
2018-11-25T02:50:53.731Z,58.10
2018-11-25T02:51:53.717Z,54.80
2018-11-25T02:52:53.718Z,60.70
2018-11-25T02:53:53.721Z,62.70
2018-11-25T02:54:53.732Z,58.10
2018-11-25T02:55:53.728Z,61.00
2018-11-25T02:56:53.711Z,65.50
2018-11-25T02:57:53.731Z,68.30
2018-11-25T02:58:53.701Z,65.80
2018-11-25T02:59:53.709Z,63.20
2018-11-25T03:00:53.714Z,71.80
2018-11-25T03:01:53.714Z,63.70
2018-11-25T03:02:53.700Z,74.30
2018-11-25T03:03:53.733Z,72.20
2018-11-25T03:04:53.698Z,73.10
2018-11-25T03:05:53.696Z,65.40
2018-11-25T03:06:53.693Z,68.20
2018-11-25T03:07:53.681Z,69.90
2018-11-25T03:08:53.686Z,66.20
2018-11-25T03:09:53.683Z,76.20
2018-11-25T03:10:53.671Z,79.50
2018-11-25T03:11:53.671Z,67.20
2018-11-25T03:12:53.687Z,63.90
2018-11-25T03:13:53.673Z,71.80
2018-11-25T03:14:53.668Z,77.00
2018-11-25T03:15:53.669Z,72.00
2018-11-25T03:16:53.666Z,67.70
2018-11-25T03:17:53.679Z,68.70
2018-11-25T03:18:53.677Z,65.00
2018-11-25T03:19:53.675Z,74.10
2018-11-25T03:20:53.658Z,73.60
2018-11-25T03:21:53.662Z,70.90
2018-11-25T03:22:53.683Z,80.60
2018-11-25T03:23:53.655Z,69.90
2018-11-25T03:24:53.646Z,66.50
2018-11-25T03:25:53.656Z,75.60
2018-11-25T03:26:53.649Z,84.10
2018-11-25T03:27:53.650Z,90.70
2018-11-25T03:28:53.652Z,77.50
2018-11-25T03:29:53.641Z,72.50
2018-11-25T03:30:53.638Z,69.70
2018-11-25T03:31:53.642Z,74.10
2018-11-25T03:32:53.636Z,76.50
2018-11-25T03:33:53.633Z,69.00
2018-11-25T03:34:53.622Z,84.10
2018-11-25T03:35:53.630Z,81.30
2018-11-25T03:36:53.622Z,69.20
2018-11-25T03:37:53.627Z,72.80
2018-11-25T03:38:53.618Z,79.80
2018-11-25T03:39:53.626Z,76.60
2018-11-25T03:40:53.609Z,73.20
2018-11-25T03:41:53.626Z,66.60
2018-11-25T03:42:53.601Z,71.10
2018-11-25T03:43:53.607Z,72.60
2018-11-25T03:44:53.607Z,70.70
2018-11-25T03:45:53.598Z,72.70
2018-11-25T03:46:53.593Z,72.50
2018-11-25T03:47:53.607Z,77.60
2018-11-25T03:48:53.605Z,80.00
2018-11-25T03:49:53.600Z,72.40
2018-11-25T03:50:53.597Z,71.90
2018-11-25T03:51:53.584Z,79.40
2018-11-25T03:52:53.601Z,81.00
2018-11-25T03:53:53.602Z,87.50
2018-11-25T03:54:53.600Z,85.30
2018-11-25T03:55:53.577Z,90.50
2018-11-25T03:56:53.579Z,76.60
2018-11-25T03:57:53.566Z,82.50
2018-11-25T03:58:53.576Z,80.10
2018-11-25T03:59:53.563Z,74.60
2018-11-25T04:00:53.585Z,73.60
2018-11-25T04:01:53.577Z,74.00
2018-11-25T04:02:53.600Z,83.20
2018-11-25T04:03:53.563Z,81.90
2018-11-25T04:04:53.579Z,78.10
2018-11-25T04:05:53.569Z,77.40
2018-11-25T04:06:53.566Z,85.30
2018-11-25T04:07:53.556Z,98.60
2018-11-25T04:08:53.542Z,86.60
2018-11-25T04:09:53.545Z,85.40
2018-11-25T04:10:53.564Z,83.70
2018-11-25T04:11:53.549Z,88.30
2018-11-25T04:12:53.546Z,91.50
2018-11-25T04:13:53.544Z,92.60
2018-11-25T04:14:53.562Z,97.60
2018-11-25T04:15:53.547Z,96.00
2018-11-25T04:16:53.545Z,89.60
2018-11-25T04:17:53.553Z,90.30
2018-11-25T04:18:53.590Z,92.40
2018-11-25T04:19:53.523Z,93.70
2018-11-25T04:20:53.525Z,101.30
2018-11-25T04:21:53.531Z,91.90
2018-11-25T04:22:53.528Z,95.90
2018-11-25T04:23:53.519Z,97.50
2018-11-25T04:24:53.508Z,88.20
2018-11-25T04:25:53.533Z,97.70
2018-11-25T04:26:53.523Z,90.50
2018-11-25T04:27:53.532Z,89.40
2018-11-25T04:28:53.506Z,88.40
2018-11-25T04:29:53.515Z,81.30
2018-11-25T04:30:53.500Z,82.00
2018-11-25T04:31:53.493Z,82.50
2018-11-25T04:32:53.513Z,78.60
2018-11-25T04:33:53.504Z,81.90
2018-11-25T04:34:53.498Z,77.00
2018-11-25T04:35:53.502Z,75.30
2018-11-25T04:36:53.501Z,83.70
2018-11-25T04:37:53.499Z,92.50
2018-11-25T04:38:53.523Z,89.30
2018-11-25T04:39:53.496Z,82.00
2018-11-25T04:40:53.491Z,83.30
2018-11-25T04:41:53.491Z,88.40
2018-11-25T04:42:53.479Z,80.70
2018-11-25T04:43:53.474Z,79.10
2018-11-25T04:44:53.478Z,73.20
2018-11-25T04:45:53.470Z,76.70
2018-11-25T04:46:53.475Z,79.50
2018-11-25T04:47:53.480Z,71.30
2018-11-25T04:48:53.479Z,79.40
2018-11-25T04:49:53.452Z,74.40
2018-11-25T04:50:53.461Z,75.20
2018-11-25T04:51:53.469Z,67.10
2018-11-25T04:52:53.456Z,69.10
2018-11-25T04:53:53.451Z,75.80
2018-11-25T04:54:53.455Z,76.60
2018-11-25T04:55:53.448Z,76.70
2018-11-25T04:56:53.450Z,72.50
2018-11-25T04:57:53.443Z,89.60
2018-11-25T04:58:53.441Z,87.70
2018-11-25T04:59:53.458Z,85.40
2018-11-25T05:00:53.446Z,86.30
2018-11-25T05:01:53.427Z,91.00
2018-11-25T05:02:53.436Z,99.30
2018-11-25T05:03:53.446Z,91.90
2018-11-25T05:04:53.439Z,86.70
2018-11-25T05:05:53.433Z,90.70
2018-11-25T05:06:53.435Z,83.10
2018-11-25T05:07:53.419Z,107.50
2018-11-25T05:08:53.424Z,92.00
2018-11-25T05:09:53.445Z,87.50
2018-11-25T05:10:53.441Z,89.30
2018-11-25T05:11:53.414Z,93.00
2018-11-25T05:12:53.407Z,86.00
2018-11-25T05:13:53.403Z,86.90
2018-11-25T05:14:53.400Z,92.10
2018-11-25T05:15:53.401Z,79.80
2018-11-25T05:16:53.413Z,85.10
2018-11-25T05:17:53.400Z,84.70
2018-11-25T05:18:53.396Z,73.50
2018-11-25T05:19:53.391Z,75.60
2018-11-25T05:20:53.393Z,76.10
2018-11-25T05:21:53.388Z,72.00
2018-11-25T05:22:53.384Z,74.80
2018-11-25T05:23:53.387Z,75.20
2018-11-25T05:24:53.374Z,79.20
2018-11-25T05:25:53.400Z,74.10
2018-11-25T05:26:53.379Z,72.20
2018-11-25T05:27:53.366Z,68.60
2018-11-25T05:28:53.387Z,74.70
2018-11-25T05:29:53.360Z,80.80
2018-11-25T05:30:53.373Z,78.10
2018-11-25T05:31:53.378Z,73.70
2018-11-25T05:32:53.366Z,76.50
2018-11-25T05:33:53.358Z,73.20
2018-11-25T05:34:53.359Z,82.40
2018-11-25T05:35:53.351Z,84.70
2018-11-25T05:36:53.353Z,75.10
2018-11-25T05:37:53.362Z,73.10
2018-11-25T05:38:53.392Z,71.70
2018-11-25T05:39:53.344Z,73.70
2018-11-25T05:40:53.339Z,80.00
2018-11-25T05:41:53.342Z,67.00
2018-11-25T05:42:53.349Z,74.40
2018-11-25T05:43:53.352Z,64.70
2018-11-25T05:44:53.337Z,72.30
2018-11-25T05:45:53.339Z,72.20
2018-11-25T05:46:53.325Z,72.50
2018-11-25T05:47:53.336Z,73.00
2018-11-25T05:48:53.339Z,74.00
2018-11-25T05:49:53.331Z,80.50
2018-11-25T05:50:53.323Z,80.80
2018-11-25T05:51:53.329Z,78.80
2018-11-25T05:52:53.328Z,76.50
2018-11-25T05:53:53.324Z,74.30
2018-11-25T05:54:53.338Z,74.70
2018-11-25T05:55:53.318Z,76.10
2018-11-25T05:56:53.307Z,70.20
2018-11-25T05:57:53.306Z,74.30
2018-11-25T05:58:53.300Z,75.00
2018-11-25T05:59:53.303Z,79.80
2018-11-25T06:00:53.315Z,74.40
2018-11-25T06:01:53.312Z,70.00
2018-11-25T06:02:53.318Z,74.20
2018-11-25T06:03:53.287Z,72.00
2018-11-25T06:04:53.299Z,76.70
2018-11-25T06:05:53.290Z,71.20
2018-11-25T06:06:53.296Z,75.60
2018-11-25T06:07:53.293Z,67.90
2018-11-25T06:08:53.284Z,70.60
2018-11-25T06:09:53.300Z,71.90
2018-11-25T06:10:53.289Z,66.00
2018-11-25T06:11:53.285Z,68.30
2018-11-25T06:12:53.283Z,69.30
2018-11-25T06:13:53.284Z,70.80
2018-11-25T06:14:53.277Z,67.20
2018-11-25T06:15:53.263Z,65.70
2018-11-25T06:16:54.350Z,65.20
2018-11-25T06:17:53.256Z,64.70
2018-11-25T06:18:53.267Z,75.80
2018-11-25T06:19:53.259Z,68.50
2018-11-25T06:20:53.269Z,77.50
2018-11-25T06:21:53.266Z,76.90
2018-11-25T06:22:53.268Z,85.50
2018-11-25T06:23:53.252Z,79.50
2018-11-25T06:24:53.246Z,86.20
2018-11-25T06:25:53.258Z,79.40
2018-11-25T06:26:53.249Z,74.90
2018-11-25T06:27:53.259Z,78.90
2018-11-25T06:28:53.238Z,88.50
2018-11-25T06:29:53.230Z,94.50
2018-11-25T06:30:53.227Z,94.00
2018-11-25T06:31:53.231Z,78.10
2018-11-25T06:32:53.230Z,78.40
2018-11-25T06:33:53.229Z,98.10
2018-11-25T06:34:53.246Z,85.80
2018-11-25T06:35:53.218Z,87.30
2018-11-25T06:36:53.225Z,98.30
2018-11-25T06:37:53.209Z,99.70
2018-11-25T06:38:53.224Z,83.10
2018-11-25T06:39:53.214Z,86.60
2018-11-25T06:40:53.203Z,89.70
2018-11-25T06:41:53.213Z,86.20
2018-11-25T06:42:53.210Z,89.20
2018-11-25T06:43:53.470Z,94.20
2018-11-25T06:44:53.199Z,94.50
2018-11-25T06:45:53.206Z,94.10
2018-11-25T06:46:53.190Z,85.40
2018-11-25T06:47:53.192Z,107.60
2018-11-25T06:48:54.989Z,95.30
2018-11-25T06:49:53.197Z,85.50
2018-11-25T06:50:53.191Z,89.50
2018-11-25T06:51:53.189Z,99.10
2018-11-25T06:52:53.191Z,95.20
2018-11-25T06:53:53.198Z,89.50
2018-11-25T06:54:53.172Z,107.10
2018-11-25T06:55:53.182Z,86.70
2018-11-25T06:56:53.184Z,90.70
2018-11-25T06:57:53.165Z,91.90
2018-11-25T06:58:53.173Z,82.40
2018-11-25T06:59:53.170Z,84.40
2018-11-25T07:00:53.178Z,74.20
2018-11-25T07:01:53.159Z,68.20
2018-11-25T07:02:53.165Z,79.20
2018-11-25T07:03:53.157Z,73.20
2018-11-25T07:04:53.152Z,68.00
2018-11-25T07:05:53.170Z,69.00
2018-11-25T07:06:53.152Z,79.50
2018-11-25T07:07:53.150Z,73.50
2018-11-25T07:08:53.144Z,72.00
2018-11-25T07:09:53.164Z,69.80
2018-11-25T07:10:53.146Z,72.00
2018-11-25T07:11:53.142Z,65.90
2018-11-25T07:12:53.144Z,65.80
2018-11-25T07:13:53.154Z,66.00
2018-11-25T07:14:53.139Z,72.40
2018-11-25T07:15:53.131Z,72.00
2018-11-25T07:16:53.129Z,68.00
2018-11-25T07:17:53.151Z,70.10
2018-11-25T07:18:53.139Z,74.90
2018-11-25T07:19:53.133Z,71.90
2018-11-25T07:20:53.127Z,75.80
2018-11-25T07:21:53.118Z,73.30
2018-11-25T07:22:54.221Z,73.70
2018-11-25T07:23:53.120Z,84.50
2018-11-25T07:24:53.137Z,78.90
2018-11-25T07:25:53.133Z,81.70
2018-11-25T07:26:53.106Z,80.30
2018-11-25T07:27:53.118Z,88.80
2018-11-25T07:28:53.103Z,89.20
2018-11-25T07:29:53.109Z,83.40
2018-11-25T07:30:53.094Z,79.50
2018-11-25T07:31:53.086Z,75.30
2018-11-25T07:32:53.102Z,78.80
2018-11-25T07:33:53.097Z,78.50
2018-11-25T07:34:53.097Z,80.30
2018-11-25T07:35:53.100Z,77.00
2018-11-25T07:36:53.091Z,82.70
2018-11-25T07:37:53.073Z,74.40
2018-11-25T07:38:53.091Z,75.50
2018-11-25T07:39:53.085Z,71.70
2018-11-25T07:40:53.092Z,70.90
2018-11-25T07:41:53.066Z,82.90
2018-11-25T07:42:53.075Z,76.80
2018-11-25T07:43:53.076Z,74.00
2018-11-25T07:44:53.076Z,80.50
2018-11-25T07:45:53.056Z,81.40
2018-11-25T07:46:53.063Z,81.90
2018-11-25T07:47:53.069Z,72.90
2018-11-25T07:48:53.057Z,73.10
2018-11-25T07:49:53.060Z,70.50
2018-11-25T07:50:53.064Z,74.30
2018-11-25T07:51:53.050Z,73.50
2018-11-25T07:52:53.080Z,73.70
2018-11-25T07:53:53.054Z,77.90
2018-11-25T07:54:53.039Z,76.70
2018-11-25T07:55:53.052Z,70.50
2018-11-25T07:56:53.039Z,78.00
2018-11-25T07:57:53.031Z,72.40
2018-11-25T07:58:53.044Z,74.80
2018-11-25T07:59:53.046Z,75.60
2018-11-25T08:00:53.063Z,68.70
2018-11-25T08:01:53.034Z,70.60
2018-11-25T08:02:53.046Z,82.20
2018-11-25T08:03:53.038Z,69.50
2018-11-25T08:04:53.026Z,72.80
2018-11-25T08:05:53.030Z,65.40
2018-11-25T08:06:53.014Z,71.10
2018-11-25T08:07:53.019Z,64.70
2018-11-25T08:08:53.019Z,62.10
2018-11-25T08:09:53.018Z,61.70
2018-11-25T08:10:53.024Z,61.20
2018-11-25T08:11:53.026Z,62.40
2018-11-25T08:12:53.033Z,61.90
2018-11-25T08:13:52.998Z,60.70
2018-11-25T08:14:53.002Z,64.60
2018-11-25T08:15:53.005Z,66.10
2018-11-25T08:16:53.001Z,63.00
2018-11-25T08:17:52.991Z,63.70
2018-11-25T08:18:53.000Z,69.70
2018-11-25T08:19:52.999Z,60.80
2018-11-25T08:20:52.988Z,64.40
2018-11-25T08:21:52.991Z,64.00
2018-11-25T08:22:52.980Z,64.00
2018-11-25T08:23:52.999Z,61.80
2018-11-25T08:24:52.980Z,60.00
2018-11-25T08:25:52.973Z,65.10
2018-11-25T08:26:52.977Z,56.80
2018-11-25T08:27:52.984Z,63.00
2018-11-25T08:28:52.971Z,60.90
2018-11-25T08:29:52.959Z,53.60
2018-11-25T08:30:52.991Z,58.20
2018-11-25T08:31:52.963Z,60.10
2018-11-25T08:32:52.959Z,57.90
2018-11-25T08:33:52.971Z,57.90
2018-11-25T08:34:52.970Z,55.60
2018-11-25T08:35:52.972Z,54.20
2018-11-25T08:36:52.982Z,57.90
2018-11-25T08:37:52.954Z,59.60
2018-11-25T08:38:52.944Z,56.20
2018-11-25T08:39:52.946Z,56.00
2018-11-25T08:40:52.959Z,57.00
2018-11-25T08:41:52.944Z,57.00
2018-11-25T08:42:52.950Z,56.90
2018-11-25T08:43:52.957Z,57.60
2018-11-25T08:44:54.047Z,55.90
2018-11-25T08:45:52.942Z,53.50
2018-11-25T08:46:52.947Z,53.00
2018-11-25T08:47:52.955Z,53.10
2018-11-25T08:48:52.926Z,52.70
2018-11-25T08:49:52.941Z,52.60
2018-11-25T08:50:52.923Z,54.30
2018-11-25T08:51:52.923Z,52.20
2018-11-25T08:52:52.932Z,49.30
2018-11-25T08:53:52.921Z,49.80
2018-11-25T08:54:52.923Z,50.00
2018-11-25T08:55:52.937Z,47.90
2018-11-25T08:56:52.908Z,47.80
2018-11-25T08:57:52.916Z,46.10
2018-11-25T08:58:52.903Z,50.20
2018-11-25T08:59:52.911Z,49.30
2018-11-25T09:00:52.910Z,49.90
2018-11-25T09:01:52.895Z,49.60
2018-11-25T09:02:52.898Z,50.30
2018-11-25T09:03:52.897Z,50.50
2018-11-25T09:04:52.902Z,49.60
2018-11-25T09:05:52.908Z,49.50
2018-11-25T09:06:52.890Z,49.00
2018-11-25T09:07:52.895Z,48.60
2018-11-25T09:08:52.892Z,50.70
2018-11-25T09:09:52.888Z,50.70
2018-11-25T09:10:52.890Z,52.10
2018-11-25T09:11:52.880Z,47.20
2018-11-25T09:12:55.699Z,50.90
2018-11-25T09:13:52.874Z,54.00
2018-11-25T09:14:52.876Z,50.80
2018-11-25T09:15:52.881Z,49.40
2018-11-25T09:16:52.888Z,48.80
2018-11-25T09:17:52.900Z,53.50
2018-11-25T09:18:52.860Z,50.80
2018-11-25T09:19:52.855Z,55.30
2018-11-25T09:20:52.858Z,52.60
2018-11-25T09:21:52.879Z,56.40
2018-11-25T09:22:52.867Z,54.30
2018-11-25T09:23:52.850Z,51.30
2018-11-25T09:24:52.848Z,52.20
2018-11-25T09:25:52.853Z,52.40
2018-11-25T09:26:52.869Z,49.10
2018-11-25T09:27:52.882Z,45.30
2018-11-25T09:28:52.853Z,47.40
2018-11-25T09:29:52.855Z,48.70
2018-11-25T09:30:52.847Z,48.00
2018-11-25T09:31:55.698Z,46.50
2018-11-25T09:32:52.846Z,49.10
2018-11-25T09:33:52.823Z,46.70
2018-11-25T09:34:52.833Z,45.40
2018-11-25T09:35:52.836Z,45.40
2018-11-25T09:36:52.819Z,46.20
2018-11-25T09:37:52.827Z,44.70
2018-11-25T09:38:52.823Z,44.40
2018-11-25T09:39:52.832Z,44.90
2018-11-25T09:40:59.207Z,45.60
2018-11-25T09:41:52.825Z,46.70
2018-11-25T09:42:52.813Z,47.30
2018-11-25T09:43:52.811Z,48.50
2018-11-25T09:44:52.812Z,47.70
2018-11-25T09:45:52.833Z,46.80
2018-11-25T09:46:52.816Z,44.80
2018-11-25T09:47:52.814Z,44.50
2018-11-25T09:48:52.801Z,45.70
2018-11-25T09:49:52.798Z,44.20
2018-11-25T09:50:52.800Z,44.60
2018-11-25T09:51:52.808Z,46.40
2018-11-25T09:52:52.804Z,43.90
2018-11-25T09:53:52.789Z,43.70
2018-11-25T09:54:52.803Z,46.50
2018-11-25T09:55:52.788Z,46.40
2018-11-25T09:56:52.790Z,49.70
2018-11-25T09:57:52.794Z,47.90
2018-11-25T09:58:52.779Z,48.30
2018-11-25T09:59:52.787Z,47.90
2018-11-25T10:00:52.788Z,47.30
2018-11-25T10:01:52.793Z,49.50
2018-11-25T10:02:52.791Z,48.30
2018-11-25T10:03:52.774Z,53.30
2018-11-25T10:04:52.780Z,50.10
2018-11-25T10:05:52.781Z,51.30
2018-11-25T10:06:52.765Z,52.40
2018-11-25T10:07:52.805Z,52.10
2018-11-25T10:08:52.784Z,50.00
2018-11-25T10:09:52.772Z,49.90
2018-11-25T10:10:52.859Z,51.60
2018-11-25T10:11:52.765Z,53.60
2018-11-25T10:12:52.772Z,51.20
2018-11-25T10:13:52.774Z,48.10
2018-11-25T10:14:52.756Z,49.80
2018-11-25T10:15:52.762Z,48.20
2018-11-25T10:16:52.747Z,49.30
2018-11-25T10:17:59.285Z,44.90
2018-11-25T10:18:52.749Z,46.60
2018-11-25T10:19:52.739Z,47.30
2018-11-25T10:20:52.763Z,47.00
2018-11-25T10:21:52.755Z,45.10
2018-11-25T10:22:52.751Z,46.30
2018-11-25T10:23:52.743Z,45.60
2018-11-25T10:24:52.741Z,45.10
2018-11-25T10:25:52.736Z,44.30
2018-11-25T10:26:52.724Z,48.20
2018-11-25T10:27:52.746Z,48.50
2018-11-25T10:28:52.743Z,45.90
2018-11-25T10:29:52.727Z,49.80
2018-11-25T10:30:52.715Z,46.90
2018-11-25T10:31:52.733Z,50.60
2018-11-25T10:32:52.732Z,47.00
2018-11-25T10:33:52.744Z,47.40
2018-11-25T10:34:52.706Z,47.10
2018-11-25T10:35:52.716Z,46.60
2018-11-25T10:36:52.721Z,47.10
2018-11-25T10:37:52.716Z,45.00
2018-11-25T10:38:52.732Z,47.00
2018-11-25T10:39:52.763Z,49.00
2018-11-25T10:40:52.709Z,46.70
2018-11-25T10:41:52.701Z,47.40
2018-11-25T10:42:52.712Z,45.60
2018-11-25T10:43:52.704Z,49.10
2018-11-25T10:44:52.697Z,47.30
2018-11-25T10:45:52.711Z,48.10
2018-11-25T10:46:52.719Z,47.60
2018-11-25T10:47:52.692Z,46.40
2018-11-25T10:48:52.691Z,46.20
2018-11-25T10:49:52.689Z,49.20
2018-11-25T10:50:52.695Z,48.20
2018-11-25T10:51:52.699Z,50.30
2018-11-25T10:52:52.704Z,49.60
2018-11-25T10:53:52.678Z,48.30
2018-11-25T10:54:52.679Z,49.90
2018-11-25T10:55:52.671Z,50.50
2018-11-25T10:56:52.683Z,53.60
2018-11-25T10:57:52.682Z,46.60
2018-11-25T10:58:52.698Z,51.90
2018-11-25T10:59:52.687Z,52.60
2018-11-25T11:00:52.686Z,49.60
2018-11-25T11:01:52.668Z,51.20
2018-11-25T11:02:52.658Z,48.10
2018-11-25T11:03:52.661Z,49.20
2018-11-25T11:04:52.665Z,51.50
2018-11-25T11:05:52.664Z,51.50
2018-11-25T11:06:52.647Z,50.00
2018-11-25T11:07:52.656Z,53.30
2018-11-25T11:08:52.657Z,53.40
2018-11-25T11:09:52.667Z,52.40
2018-11-25T11:10:52.680Z,51.80
2018-11-25T11:11:52.637Z,55.00
2018-11-25T11:12:52.647Z,51.50
2018-11-25T11:13:52.640Z,52.50
2018-11-25T11:14:52.650Z,53.80
2018-11-25T11:15:52.646Z,54.40
2018-11-25T11:16:54.009Z,54.20
2018-11-25T11:17:52.642Z,55.30
2018-11-25T11:18:52.644Z,56.70
2018-11-25T11:19:52.634Z,58.00
2018-11-25T11:20:52.623Z,59.20
2018-11-25T11:21:52.632Z,59.10
2018-11-25T11:22:52.638Z,63.80
2018-11-25T11:23:52.617Z,60.70
2018-11-25T11:24:52.617Z,62.10
2018-11-25T11:25:52.621Z,61.60
2018-11-25T11:26:52.619Z,63.10
2018-11-25T11:27:52.622Z,60.80
2018-11-25T11:28:52.617Z,60.70
2018-11-25T11:29:52.626Z,58.80
2018-11-25T11:30:52.630Z,60.30
2018-11-25T11:31:52.612Z,58.50
2018-11-25T11:32:52.609Z,57.70
2018-11-25T11:33:52.602Z,55.00
2018-11-25T11:34:52.607Z,53.90
2018-11-25T11:35:52.591Z,53.40
2018-11-25T11:36:52.633Z,52.50
2018-11-25T11:37:52.593Z,54.20
2018-11-25T11:38:52.593Z,53.60
2018-11-25T11:39:52.589Z,55.60
2018-11-25T11:40:52.595Z,55.00
2018-11-25T11:41:52.602Z,56.70
2018-11-25T11:42:52.599Z,54.40
2018-11-25T11:43:52.583Z,52.50
2018-11-25T11:44:52.616Z,52.10
2018-11-25T11:45:52.590Z,52.10
2018-11-25T11:46:52.589Z,49.70
2018-11-25T11:47:52.585Z,52.30
2018-11-25T11:48:52.576Z,49.20
2018-11-25T11:49:52.573Z,51.30
2018-11-25T11:50:52.562Z,48.20
2018-11-25T11:51:52.576Z,47.00
2018-11-25T11:52:52.581Z,48.10
2018-11-25T11:53:52.593Z,50.10
2018-11-25T11:54:52.564Z,49.40
2018-11-25T11:55:52.556Z,50.30
2018-11-25T11:56:52.560Z,51.10
2018-11-25T11:57:52.558Z,52.10
2018-11-25T11:58:52.565Z,50.00
2018-11-25T11:59:52.569Z,52.10
2018-11-25T12:00:52.544Z,50.30
2018-11-25T12:01:52.563Z,50.40
2018-11-25T12:02:52.555Z,52.60
2018-11-25T12:03:52.540Z,51.50
2018-11-25T12:04:52.545Z,52.40
2018-11-25T12:05:52.559Z,50.60
2018-11-25T12:06:52.557Z,51.30
2018-11-25T12:07:52.555Z,53.10
2018-11-25T12:08:52.576Z,53.60
2018-11-25T12:09:52.546Z,54.50
2018-11-25T12:10:52.537Z,54.20
2018-11-25T12:11:52.539Z,52.00
2018-11-25T12:12:52.527Z,54.60
2018-11-25T12:13:52.520Z,51.30
2018-11-25T12:14:52.535Z,55.10
2018-11-25T12:15:52.540Z,56.80
2018-11-25T12:16:52.527Z,54.90
2018-11-25T12:17:52.529Z,57.70
2018-11-25T12:18:52.523Z,58.30
2018-11-25T12:19:52.528Z,57.20
2018-11-25T12:20:52.517Z,53.30
2018-11-25T12:21:58.100Z,56.70
2018-11-25T12:22:52.526Z,56.60
2018-11-25T12:23:52.522Z,56.00
2018-11-25T12:24:52.501Z,53.40
2018-11-25T12:25:52.508Z,53.50
2018-11-25T12:26:52.507Z,53.90
2018-11-25T12:27:52.510Z,54.40
2018-11-25T12:28:52.505Z,54.90
2018-11-25T12:29:52.512Z,54.30
2018-11-25T12:30:52.495Z,54.10
2018-11-25T12:31:52.496Z,52.20
2018-11-25T12:32:52.504Z,54.10
2018-11-25T12:33:52.489Z,53.10
2018-11-25T12:34:52.497Z,54.10
2018-11-25T12:35:52.509Z,53.10
2018-11-25T12:36:53.445Z,52.30
2018-11-25T12:37:52.480Z,52.90
2018-11-25T12:38:52.490Z,50.20
2018-11-25T12:39:52.489Z,49.40
2018-11-25T12:40:52.485Z,52.10
2018-11-25T12:41:52.477Z,51.30
2018-11-25T12:42:55.232Z,50.70
2018-11-25T12:43:52.477Z,50.60
2018-11-25T12:44:52.483Z,51.30
2018-11-25T12:45:52.472Z,50.50
2018-11-25T12:46:52.463Z,52.30
2018-11-25T12:47:52.475Z,51.30
2018-11-25T12:48:52.472Z,53.50
2018-11-25T12:49:52.492Z,47.20
2018-11-25T12:50:52.474Z,50.60
2018-11-25T12:51:52.465Z,51.30
2018-11-25T12:52:52.459Z,50.40